createdAt,value
2023-07-03T00:00:29.058Z,100048.25
2023-07-03T00:03:31.519Z,100059.22
2023-07-03T00:06:33.997Z,100061.47
2023-07-03T00:09:36.366Z,100065.78
2023-07-03T00:12:38.853Z,100069.91
2023-07-03T00:15:41.195Z,100080.44
2023-07-03T00:18:43.635Z,100071.13
2023-07-03T00:21:46.047Z,100075.78
2023-07-03T00:24:48.550Z,100095.47
2023-07-03T00:27:51.150Z,100082.09
2023-07-03T00:30:53.586Z,100087.63
2023-07-03T00:33:55.973Z,100086.84
2023-07-03T00:36:58.387Z,100083.31
2023-07-03T00:40:00.950Z,100085.28
2023-07-03T00:43:05.282Z,100080.19
2023-07-03T00:46:11.922Z,100083.03
2023-07-03T00:49:14.786Z,100066.28
2023-07-03T00:52:17.341Z,100082.94
2023-07-03T00:55:20.722Z,100079.84
2023-07-03T00:58:23.279Z,100080.63
2023-07-03T01:01:28.683Z,100079.06
2023-07-03T01:04:46.487Z,100081.06
2023-07-03T01:07:51.829Z,100069.81
2023-07-03T01:10:55.683Z,100083.81
2023-07-03T01:14:00.693Z,100085.00
2023-07-03T01:17:03.643Z,100082.34
2023-07-03T01:20:07.435Z,100076.19
2023-07-03T01:23:36.180Z,100087.84
2023-07-03T01:26:43.730Z,100086.72
2023-07-03T01:29:55.015Z,100083.53
2023-07-03T01:32:58.704Z,100092.59
2023-07-03T01:36:02.095Z,100096.56
2023-07-03T01:39:08.012Z,100086.03
2023-07-03T01:42:11.648Z,100092.25
2023-07-03T01:45:14.665Z,100095.78
2023-07-03T01:48:18.254Z,100090.09
2023-07-03T01:51:33.345Z,100097.78
2023-07-03T01:54:41.666Z,100087.94
2023-07-03T01:57:58.034Z,100088.38
2023-07-03T02:01:08.057Z,100092.69
2023-07-03T02:04:20.158Z,100087.59
2023-07-03T02:07:22.888Z,100092.34
2023-07-03T02:10:25.395Z,100088.50
2023-07-03T02:13:28.703Z,100100.25
2023-07-03T02:16:34.590Z,100091.69
2023-07-03T02:19:37.614Z,100097.59
2023-07-03T02:22:40.815Z,100100.75
2023-07-03T02:25:49.914Z,100106.69
2023-07-03T02:28:52.579Z,100106.41
2023-07-03T02:31:55.022Z,100112.63
2023-07-03T02:34:57.510Z,100099.25
2023-07-03T02:37:59.904Z,100089.94
2023-07-03T02:41:04.189Z,100111.94
2023-07-03T02:44:06.586Z,100115.91
2023-07-03T02:47:10.484Z,100111.38
2023-07-03T02:50:13.981Z,100130.91
2023-07-03T02:53:16.671Z,100126.59
2023-07-03T02:56:19.166Z,100133.31
2023-07-03T02:59:24.173Z,100132.59
2023-07-03T03:02:27.230Z,100126.38
2023-07-03T03:05:29.680Z,100125.69
2023-07-03T03:08:32.179Z,100132.75
2023-07-03T03:11:34.650Z,100141.72
2023-07-03T03:14:38.057Z,100141.81
2023-07-03T03:17:40.685Z,100147.69
2023-07-03T03:20:46.911Z,100134.03
2023-07-03T03:23:49.458Z,100153.63
2023-07-03T03:26:51.918Z,100148.59
2023-07-03T03:29:54.467Z,100160.00
2023-07-03T03:32:57.024Z,100157.66
2023-07-03T03:35:59.586Z,100163.16
2023-07-03T03:39:02.049Z,100160.47
2023-07-03T03:42:06.058Z,100160.84
2023-07-03T03:45:08.693Z,100160.56
2023-07-03T03:48:11.347Z,100169.19
2023-07-03T03:51:15.208Z,100172.00
2023-07-03T03:54:17.589Z,100184.88
2023-07-03T03:57:19.996Z,100182.13
2023-07-03T04:00:23.052Z,100188.00
2023-07-03T04:03:25.703Z,100191.53
2023-07-03T04:06:28.341Z,100185.72
2023-07-03T04:09:30.942Z,100195.84
2023-07-03T04:12:33.623Z,100187.56
2023-07-03T04:15:38.426Z,100178.66
2023-07-03T04:18:41.987Z,100191.53
2023-07-03T04:21:44.431Z,100187.94
2023-07-03T04:24:46.909Z,100193.44
2023-07-03T04:27:49.375Z,100183.25
2023-07-03T04:30:51.813Z,100192.53
2023-07-03T04:33:54.235Z,100185.59
2023-07-03T04:36:56.704Z,100207.81
2023-07-03T04:39:59.153Z,100221.53
2023-07-03T04:43:01.843Z,100212.84
2023-07-03T04:46:04.735Z,100227.31
2023-07-03T04:49:07.193Z,100210.38
2023-07-03T04:52:09.547Z,100214.22
2023-07-03T04:55:13.185Z,100229.34
2023-07-03T04:58:16.125Z,100226.44
2023-07-03T05:01:19.086Z,100230.69
2023-07-03T05:04:21.649Z,100229.41
2023-07-03T05:07:24.141Z,100232.44
2023-07-03T05:10:27.033Z,100239.44
2023-07-03T05:13:29.403Z,100229.94
2023-07-03T05:16:32.151Z,100240.16
2023-07-03T05:19:34.868Z,100246.03
2023-07-03T05:22:42.113Z,100242.41
2023-07-03T05:25:46.641Z,100241.97
2023-07-03T05:28:49.057Z,100244.38
2023-07-03T05:31:51.462Z,100237.22
2023-07-03T05:34:53.880Z,100237.56
2023-07-03T05:37:57.362Z,100250.09
2023-07-03T05:40:59.898Z,100249.47
2023-07-03T05:44:02.385Z,100254.91
2023-07-03T05:47:07.589Z,100245.06
2023-07-03T05:50:10.510Z,100237.59
2023-07-03T05:53:13.293Z,100252.00
2023-07-03T05:56:15.772Z,100266.06
2023-07-03T05:59:18.200Z,100267.72
2023-07-03T06:02:20.673Z,100263.75
2023-07-03T06:05:23.180Z,100274.91
2023-07-03T06:08:25.740Z,100276.78
2023-07-03T06:11:28.135Z,100279.81
2023-07-03T06:14:31.236Z,100269.63
2023-07-03T06:17:33.705Z,100282.69
2023-07-03T06:20:36.239Z,100274.22
2023-07-03T06:23:38.594Z,100268.69
2023-07-03T06:26:41.627Z,100277.44
2023-07-03T06:29:44.140Z,100276.63
2023-07-03T06:32:46.946Z,100265.19
2023-07-03T06:35:51.107Z,100269.91
2023-07-03T06:38:58.183Z,100267.97
2023-07-03T06:42:00.891Z,100266.56
2023-07-03T06:45:03.785Z,100267.72
2023-07-03T06:48:06.394Z,100277.19
2023-07-03T06:51:10.000Z,100271.19
2023-07-03T06:54:12.384Z,100262.56
2023-07-03T06:57:14.859Z,100255.13
2023-07-03T07:00:17.976Z,100278.44
2023-07-03T07:03:20.628Z,100273.34
2023-07-03T07:06:28.613Z,100263.13
2023-07-03T07:09:31.056Z,100261.22
2023-07-03T07:12:33.475Z,100267.66
2023-07-03T07:15:39.770Z,100273.19
2023-07-03T07:18:42.682Z,100275.63
2023-07-03T07:21:45.339Z,100259.41
2023-07-03T07:24:47.832Z,100273.38
2023-07-03T07:27:50.242Z,100268.13
2023-07-03T07:30:52.944Z,100261.03
2023-07-03T07:33:56.473Z,100269.13
2023-07-03T07:36:59.121Z,100257.69
2023-07-03T07:40:01.559Z,100265.84
2023-07-03T07:43:04.726Z,100257.38
2023-07-03T07:46:07.342Z,100253.84
2023-07-03T07:49:10.564Z,100257.63
2023-07-03T07:52:13.086Z,100263.66
2023-07-03T07:55:15.544Z,100264.22
2023-07-03T07:58:17.960Z,100262.53
2023-07-03T08:01:20.904Z,100260.00
2023-07-03T08:04:23.489Z,100261.44
2023-07-03T08:07:25.982Z,100267.56
2023-07-03T08:10:28.377Z,100256.06
2023-07-03T08:13:32.113Z,100261.59
2023-07-03T08:16:34.592Z,100261.59
2023-07-03T08:19:37.516Z,100274.50
2023-07-03T08:22:40.405Z,100267.97
2023-07-03T08:25:43.113Z,100251.44
2023-07-03T08:28:45.526Z,100264.78
2023-07-03T08:31:47.937Z,100262.91
2023-07-03T08:37:56.711Z,100264.00
2023-07-03T08:41:00.659Z,100264.13
2023-07-03T08:44:03.065Z,100270.00
2023-07-03T08:47:12.044Z,100254.38
2023-07-03T08:50:27.871Z,100265.34
2023-07-03T08:53:43.760Z,100259.03
2023-07-03T08:56:47.184Z,100265.34
2023-07-03T08:59:49.534Z,100251.38
2023-07-03T09:03:07.710Z,100273.00
2023-07-03T09:06:51.535Z,100268.13
2023-07-03T09:10:12.722Z,100276.00
2023-07-03T09:13:40.310Z,100280.78
2023-07-03T09:16:43.652Z,100256.56
2023-07-03T09:19:48.666Z,100269.00
2023-07-03T09:22:58.024Z,100264.78
2023-07-03T09:26:06.653Z,100264.78
2023-07-03T09:29:11.270Z,100264.66
2023-07-03T09:32:27.809Z,100284.41
2023-07-03T09:35:38.341Z,100283.72
2023-07-03T09:38:40.934Z,100278.63
2023-07-03T09:41:43.423Z,100275.22
2023-07-03T09:44:45.911Z,100278.22
2023-07-03T09:47:59.965Z,100265.69
2023-07-03T09:51:20.791Z,100273.47
2023-07-03T09:54:27.539Z,100270.47
2023-07-03T09:57:30.038Z,100270.91
2023-07-03T10:00:32.470Z,100272.69
2023-07-03T10:03:36.535Z,100265.47
2023-07-03T10:06:40.842Z,100265.03
2023-07-03T10:12:59.531Z,100277.44
2023-07-03T10:16:02.758Z,100266.22
2023-07-03T10:19:05.381Z,100248.13
2023-07-03T10:22:08.211Z,100246.13
2023-07-03T10:25:18.632Z,100246.47
2023-07-03T10:28:28.248Z,100269.88
2023-07-03T10:31:41.752Z,100270.75
2023-07-03T10:35:01.588Z,100281.06
2023-07-03T10:38:17.576Z,100258.56
2023-07-03T10:41:24.563Z,100265.97
2023-07-03T10:44:31.126Z,100285.59
2023-07-03T10:47:39.372Z,100279.06
2023-07-03T10:50:50.583Z,100287.94
2023-07-03T10:54:01.968Z,100280.06
2023-07-03T10:57:07.387Z,100260.31
2023-07-03T11:00:14.892Z,100257.78
2023-07-03T11:03:43.746Z,100267.97
2023-07-03T11:06:49.704Z,100272.41
2023-07-03T11:10:10.172Z,100273.28
2023-07-03T11:13:53.133Z,100265.84
2023-07-03T11:17:07.642Z,100253.56
2023-07-03T11:20:18.611Z,100281.59
2023-07-03T11:23:31.738Z,100274.84
2023-07-03T11:30:04.806Z,100252.91
2023-07-03T11:33:07.534Z,100241.94
2023-07-03T11:36:49.529Z,100272.53
2023-07-03T11:39:58.205Z,100267.31
2023-07-03T11:46:22.352Z,100269.19
2023-07-03T11:49:27.264Z,100268.75
2023-07-03T11:52:35.940Z,100266.88
2023-07-03T11:55:40.720Z,100263.31
2023-07-03T11:58:44.548Z,100273.41
2023-07-03T12:01:47.139Z,100213.34
2023-07-03T12:04:51.029Z,100270.63
2023-07-03T12:07:53.470Z,100247.72
2023-07-03T12:10:56.872Z,100251.34
2023-07-03T12:13:59.655Z,100257.34
2023-07-03T12:17:02.266Z,100254.56
2023-07-03T12:20:13.799Z,100249.78
2023-07-03T12:23:35.981Z,100257.00
2023-07-03T12:26:51.247Z,100244.81
2023-07-03T12:29:54.031Z,100257.56
2023-07-03T12:32:58.400Z,100248.03
2023-07-03T12:36:00.952Z,100245.38
2023-07-03T12:39:16.108Z,100240.16
2023-07-03T12:42:24.471Z,100238.59
2023-07-03T12:45:29.399Z,100218.44
2023-07-03T12:48:31.777Z,100243.69
2023-07-03T12:51:39.699Z,100239.81
2023-07-03T12:54:42.140Z,100246.91
2023-07-03T12:57:45.974Z,100247.69
2023-07-03T13:00:59.540Z,100247.03
2023-07-03T13:04:02.708Z,100238.03
2023-07-03T13:07:05.739Z,100233.84
2023-07-03T13:10:12.220Z,100254.34
2023-07-03T13:13:23.644Z,100232.84
2023-07-03T13:16:31.943Z,100247.25
2023-07-03T13:19:36.281Z,100249.59
2023-07-03T13:22:38.883Z,100210.25
2023-07-03T13:25:53.991Z,100233.63
2023-07-03T13:29:02.525Z,100222.78
2023-07-03T13:32:19.557Z,100229.28
2023-07-03T13:35:49.650Z,100233.63
2023-07-03T13:39:27.428Z,100229.28
2023-07-03T13:42:32.034Z,100226.50
2023-07-03T13:45:34.499Z,100226.19
2023-07-03T13:48:36.894Z,100191.19
2023-07-03T13:51:40.364Z,100221.09
2023-07-03T13:54:42.807Z,100219.22
2023-07-03T13:57:45.301Z,100218.13
2023-07-03T14:00:47.766Z,100208.81
2023-07-03T14:03:50.283Z,100216.91
2023-07-03T14:06:52.862Z,100213.47
2023-07-03T14:09:56.580Z,100210.13
2023-07-03T14:12:58.939Z,100215.00
2023-07-03T14:16:01.359Z,100219.00
2023-07-03T14:19:06.936Z,100210.69
2023-07-03T14:22:10.138Z,100210.69
2023-07-03T14:25:14.926Z,100222.22
2023-07-03T14:28:17.623Z,100209.78
2023-07-03T14:31:20.013Z,100208.91
2023-07-03T14:34:22.408Z,100211.34
2023-07-03T14:37:24.786Z,100215.56
2023-07-03T14:40:27.232Z,100203.91
2023-07-03T14:43:29.657Z,100195.59
2023-07-03T14:46:32.167Z,100208.47
2023-07-03T14:49:34.595Z,100210.47
2023-07-03T14:52:37.993Z,100206.91
2023-07-03T14:55:40.363Z,100197.25
2023-07-03T14:58:42.807Z,100201.38
2023-07-03T15:01:45.444Z,100204.59
2023-07-03T15:04:48.044Z,100184.84
2023-07-03T15:07:53.146Z,100194.59
2023-07-03T15:10:55.945Z,100201.91
2023-07-03T15:13:58.405Z,100195.16
2023-07-03T15:17:00.871Z,100183.63
2023-07-03T15:20:05.408Z,100187.63
2023-07-03T15:23:07.861Z,100197.59
2023-07-03T15:26:10.961Z,100191.50
2023-07-03T15:29:13.780Z,100189.16
2023-07-03T15:32:16.318Z,100203.13
2023-07-03T15:35:18.762Z,100195.72
2023-07-03T15:38:21.167Z,100199.25
2023-07-03T15:41:23.663Z,100196.94
2023-07-03T15:44:26.752Z,100188.28
2023-07-03T15:47:29.116Z,100191.38
2023-07-03T15:50:31.537Z,100186.06
2023-07-03T15:53:35.252Z,100193.38
2023-07-03T15:56:37.670Z,100190.38
2023-07-03T15:59:40.458Z,100174.31
2023-07-03T16:02:43.050Z,100172.84
2023-07-03T16:05:45.431Z,100184.50
2023-07-03T16:08:50.992Z,100196.59
2023-07-03T16:11:54.134Z,100196.25
2023-07-03T16:14:56.558Z,100189.28
2023-07-03T16:17:58.924Z,100195.75
2023-07-03T16:21:03.387Z,100211.66
2023-07-03T16:24:08.147Z,100206.13
2023-07-03T16:27:10.547Z,100206.13
2023-07-03T16:30:12.951Z,100201.13
2023-07-03T16:33:15.358Z,100195.69
2023-07-03T16:36:23.426Z,100206.22
2023-07-03T16:39:25.895Z,100207.22
2023-07-03T16:42:28.445Z,100200.00
2023-07-03T16:45:30.960Z,100207.53
2023-07-03T16:48:34.246Z,100208.66
2023-07-03T16:51:36.845Z,100187.13
2023-07-03T16:54:39.261Z,100198.03
2023-07-03T16:57:41.604Z,100191.22
2023-07-03T17:00:44.088Z,100196.66
2023-07-03T17:03:47.403Z,100211.53
2023-07-03T17:06:49.824Z,100191.66
2023-07-03T17:09:52.295Z,100208.00
2023-07-03T17:12:54.729Z,100206.00
2023-07-03T17:15:57.294Z,100210.81
2023-07-03T17:18:59.710Z,100211.16
2023-07-03T17:22:02.216Z,100197.53
2023-07-03T17:25:04.939Z,100208.50
2023-07-03T17:28:07.690Z,100200.28
2023-07-03T17:31:10.262Z,100206.06
2023-07-03T17:34:13.998Z,100201.50
2023-07-03T17:37:16.422Z,100208.16
2023-07-03T17:40:18.803Z,100211.28
2023-07-03T17:43:24.288Z,100210.16
2023-07-03T17:46:26.847Z,100205.50
2023-07-03T17:49:29.384Z,100205.69
2023-07-03T17:52:32.090Z,100216.13
2023-07-03T17:55:34.522Z,100199.50
2023-07-03T17:58:36.919Z,100218.91
2023-07-03T18:01:39.386Z,100229.97
2023-07-03T18:04:42.077Z,100228.41
2023-07-03T18:07:44.467Z,100222.22
2023-07-03T18:10:46.856Z,100231.63
2023-07-03T18:13:49.395Z,100214.88
2023-07-03T18:16:52.197Z,100224.53
2023-07-03T18:19:54.762Z,100225.75
2023-07-03T18:22:57.271Z,100225.09
2023-07-03T18:25:59.658Z,100225.63
2023-07-03T18:29:02.042Z,100234.94
2023-07-03T18:32:04.661Z,100234.25
2023-07-03T18:35:07.683Z,100237.38
2023-07-03T18:38:10.087Z,100222.50
2023-07-03T18:41:12.829Z,100219.94
2023-07-03T18:44:15.223Z,100237.38
2023-07-03T18:47:17.766Z,100236.59
2023-07-03T18:50:20.306Z,100246.88
2023-07-03T18:53:22.746Z,100233.25
2023-07-03T18:56:25.146Z,100247.09
2023-07-03T18:59:28.094Z,100256.50
2023-07-03T19:02:31.552Z,100270.69
2023-07-03T19:05:33.955Z,100258.16
2023-07-03T19:08:37.677Z,100279.44
2023-07-03T19:11:43.917Z,100265.25
2023-07-03T19:14:46.359Z,100274.75
2023-07-03T19:17:48.788Z,100270.09
2023-07-03T19:20:51.258Z,100274.09
2023-07-03T19:23:53.634Z,100278.50
2023-07-03T19:26:56.075Z,100265.72
2023-07-03T19:29:58.480Z,100265.63
2023-07-03T19:33:00.989Z,100285.59
2023-07-03T19:36:03.561Z,100276.94
2023-07-03T19:39:06.237Z,100287.25
2023-07-03T19:42:08.803Z,100269.69
2023-07-03T19:45:11.427Z,100286.91
2023-07-03T19:48:14.275Z,100285.34
2023-07-03T19:51:16.766Z,100293.41
2023-07-03T19:54:19.154Z,100292.97
2023-07-03T19:57:21.734Z,100302.81
2023-07-03T20:00:26.805Z,100301.25
2023-07-03T20:03:29.815Z,100284.50
2023-07-03T20:06:32.355Z,100287.19
2023-07-03T20:09:34.797Z,100295.81
2023-07-03T20:12:37.198Z,100279.41
2023-07-03T20:15:43.802Z,100289.59
2023-07-03T20:18:53.667Z,100296.69
2023-07-03T20:21:56.158Z,100308.97
2023-07-03T20:24:58.581Z,100289.00
2023-07-03T20:28:01.806Z,100303.88
2023-07-03T20:31:07.785Z,100297.56
2023-07-03T20:34:10.233Z,100298.00
2023-07-03T20:37:12.715Z,100292.28
2023-07-03T20:40:15.423Z,100299.63
2023-07-03T20:43:17.795Z,100287.63
2023-07-03T20:46:22.956Z,100280.53
2023-07-03T20:49:26.601Z,100292.28
2023-07-03T20:52:30.864Z,100294.63
2023-07-03T20:55:44.387Z,100275.50
2023-07-03T20:58:48.506Z,100287.19
2023-07-03T21:01:51.221Z,100285.34
2023-07-03T21:04:53.687Z,100293.31
2023-07-03T21:07:56.112Z,100303.88
2023-07-03T21:10:59.605Z,100303.50
2023-07-03T21:14:05.542Z,100293.84
2023-07-03T21:17:08.160Z,100305.94
2023-07-03T21:20:11.275Z,100307.56
2023-07-03T21:23:13.608Z,100307.56
2023-07-03T21:26:19.197Z,100303.34
2023-07-03T21:29:21.504Z,100291.06
2023-07-03T21:32:23.828Z,100310.16
2023-07-03T21:35:26.393Z,100316.81
2023-07-03T21:38:28.737Z,100313.72
2023-07-03T21:41:33.327Z,100311.38
2023-07-03T21:44:35.714Z,100313.78
2023-07-03T21:47:38.094Z,100296.25
2023-07-03T21:50:40.455Z,100303.34
2023-07-03T21:53:43.637Z,100301.09
2023-07-03T21:56:46.717Z,100310.06
2023-07-03T21:59:50.329Z,100332.13
2023-07-03T22:02:52.766Z,100319.94
2023-07-03T22:05:57.941Z,100323.91
2023-07-03T22:09:00.660Z,100321.56
2023-07-03T22:12:06.102Z,100324.84
2023-07-03T22:15:09.147Z,100313.50
2023-07-03T22:18:11.602Z,100331.94
2023-07-03T22:21:15.583Z,100330.38
2023-07-03T22:24:18.032Z,100328.03
2023-07-03T22:27:20.385Z,100308.16
2023-07-03T22:30:22.900Z,100323.03
2023-07-03T22:33:25.502Z,100324.94
2023-07-03T22:36:27.851Z,100324.94
2023-07-03T22:39:30.267Z,100319.03
2023-07-03T22:42:32.611Z,100319.03
2023-07-03T22:45:35.239Z,100313.94
2023-07-03T22:48:41.175Z,100298.81
2023-07-03T22:51:43.695Z,100317.91
2023-07-03T22:54:49.321Z,100316.38
2023-07-03T22:57:51.806Z,100312.81
2023-07-03T23:00:54.293Z,100310.06
2023-07-03T23:03:56.736Z,100306.94
2023-07-03T23:06:59.117Z,100301.06
2023-07-03T23:10:08.174Z,100280.31
2023-07-03T23:13:10.637Z,100292.34
2023-07-03T23:16:13.173Z,100281.88
2023-07-03T23:19:18.038Z,100299.16
2023-07-03T23:22:21.353Z,100296.41
2023-07-03T23:25:24.375Z,100300.72
2023-07-03T23:28:32.712Z,100288.78
2023-07-03T23:31:35.627Z,100311.00
2023-07-03T23:34:38.090Z,100312.97
2023-07-03T23:37:42.440Z,100326.81
2023-07-03T23:40:45.942Z,100324.47
2023-07-03T23:43:49.930Z,100329.22
2023-07-03T23:46:52.966Z,100337.94
2023-07-03T23:49:55.586Z,100338.72
2023-07-03T23:52:58.233Z,100357.28
2023-07-03T23:56:03.379Z,100361.84
2023-07-03T23:59:05.736Z,100340.66
